Startpagina
METAR-TAF:

METAR-TAF

Vliegvelden :

Vliegbasis Gilze-Rijen

Gilze-Rijen, Nederland

breedte: 51-34N, lengte: 004-56E, hoogte: 15 m

Actueel weer

Dit bericht is 24 minuten geleden gemaakt, om 18:55 UTC
Wind 3 kt uit het zuidzuidoosten
Temperatuur 15°C
Vochtigheid 82%
Druk 1014 hPa
Zicht 10 km of meer
geen wolken onder 1500 m en geen cumulonimbus

METAR: EHGR 151855Z AUTO VRB03KT 9999 NCD 15/12 Q1014 BLU 16003KT CAVOK

Tijdstip: 21:19 (19:19 UTC)

Verwachting

Dit bericht is 6 uur en het 40 minuten geleden gemaakt, om 12:39 UTC
Verwachting geldig van 15 om 13 UTC tot 16 om 01 UTC
Wind 5 kt uit het zuiden
Zicht 10 km of meer
geen wolken onder 1500 m en geen cumulonimbus

TAF: EHGR 151239Z 1513/1601 20008KT CAVOK BEXMG 1516/1519 17005KT

Waarnemingen en weersverwachtingen van meer dan 4000 vliegvelden (METAR en TAF).

De beschikbare stations zijn de gele en rode punten op de kaart.

Ga met uw muis naar het station om de naam te zien.

Klik dan om waarnemingen en weersverwachtingen te zien.

kaart wijzigen: klik op de groene knoppen met een zwart kruis om in te zoomen, op de groene knop met een streepje om uit te zoomen of op de groene pijlen voor aangrenzende kaarten.


METAR-TAF: